Time;durP1;ratioP1;P1;durP2;ratioP2;P2;SDS_P1;SDS_P2;PMS_P1;PMS_P2;Temp;Humidity;BMP_temperature;BMP_pressure;BME280_temperature;BME280_humidity;BME280_pressure;Samples;Min_cycle;Max_cycle;Signal;HPM_P1;HPM_P2
2023/07/12 00:00:35;;;;;;;18.07;16.57;;;25.60;99.90;;;;;;6177651;28;20636;-61
2023/07/12 00:03:39;;;;;;;18.73;17.23;;;25.50;99.90;;;;;;6177182;28;20229;-62
2023/07/12 00:06:43;;;;;;;19.20;17.50;;;25.50;99.90;;;;;;6177265;28;20779;-61
2023/07/12 00:09:46;;;;;;;18.17;16.57;;;25.50;99.90;;;;;;6176514;28;20644;-61
2023/07/12 00:12:50;;;;;;;17.63;16.33;;;25.30;99.90;;;;;;6176892;28;20554;-60
2023/07/12 00:15:54;;;;;;;18.33;16.73;;;25.40;99.90;;;;;;6177255;28;20241;-61
2023/07/12 00:18:57;;;;;;;17.20;15.80;;;25.40;99.90;;;;;;6176591;28;20222;-60
2023/07/12 00:22:03;;;;;;;17.63;16.33;;;25.40;99.90;;;;;;6177436;28;20237;-61
2023/07/12 00:25:07;;;;;;;17.23;15.83;;;25.40;99.90;;;;;;6176894;28;20795;-61
2023/07/12 00:28:22;;;;;;;17.20;15.80;;;25.40;99.90;;;;;;6176814;28;20577;-62
2023/07/12 00:31:26;;;;;;;20.03;16.97;;;25.40;99.90;;;;;;6176543;28;20641;-61
2023/07/12 00:34:29;;;;;;;18.23;16.70;;;25.40;99.90;;;;;;6176405;28;20249;-61
2023/07/12 00:37:34;;;;;;;17.40;15.87;;;25.30;99.90;;;;;;6192489;28;20239;-61
2023/07/12 00:40:58;;;;;;;17.23;15.90;;;25.30;99.90;;;;;;6200565;28;20229;-63
2023/07/12 00:44:06;;;;;;;15.87;14.57;;;25.20;99.90;;;;;;6199855;28;20233;-66
2023/07/12 00:47:13;;;;;;;15.90;14.70;;;25.10;99.90;;;;;;6199457;28;20246;-61
2023/07/12 00:50:18;;;;;;;17.90;16.40;;;25.00;99.90;;;;;;6174337;28;20230;-62
2023/07/12 00:53:24;;;;;;;19.23;17.40;;;24.90;99.90;;;;;;6160242;28;20321;-62
2023/07/12 00:56:28;;;;;;;17.57;16.27;;;24.80;99.90;;;;;;6153217;29;20614;-62
2023/07/12 00:59:31;;;;;;;19.00;17.57;;;24.80;99.90;;;;;;6162884;28;20264;-63
2023/07/12 01:02:35;;;;;;;18.93;17.10;;;24.60;99.90;;;;;;6165394;28;20705;-65
2023/07/12 01:05:38;;;;;;;18.47;16.77;;;24.60;99.90;;;;;;6175836;28;20221;-64
2023/07/12 01:08:43;;;;;;;18.80;17.30;;;24.60;99.90;;;;;;6199674;28;20209;-63
2023/07/12 01:11:47;;;;;;;17.50;16.17;;;24.60;99.90;;;;;;6197207;28;20616;-63
2023/07/12 01:14:50;;;;;;;17.70;16.23;;;24.60;99.90;;;;;;6198211;28;20299;-63
2023/07/12 01:17:54;;;;;;;18.13;16.73;;;24.70;99.90;;;;;;6197356;28;20228;-63
2023/07/12 01:21:10;;;;;;;18.10;16.50;;;24.60;99.90;;;;;;6200086;28;20295;-63
2023/07/12 01:24:14;;;;;;;18.57;17.17;;;24.60;99.90;;;;;;6199579;28;20581;-63
2023/07/12 01:27:20;;;;;;;17.80;16.27;;;24.60;99.90;;;;;;6200148;28;20683;-63
2023/07/12 01:30:23;;;;;;;20.00;18.30;;;24.60;99.90;;;;;;6200656;28;20240;-63
2023/07/12 01:33:26;;;;;;;19.13;17.60;;;24.60;99.90;;;;;;6203442;28;20610;-63
2023/07/12 01:36:32;;;;;;;19.23;17.70;;;24.60;99.90;;;;;;6205647;28;20239;-63
2023/07/12 01:39:35;;;;;;;19.30;17.70;;;24.60;99.90;;;;;;6205411;28;20233;-63
2023/07/12 01:42:38;;;;;;;18.27;16.87;;;24.60;99.90;;;;;;6204896;28;20622;-64
2023/07/12 01:45:41;;;;;;;18.33;16.93;;;24.70;99.90;;;;;;6204965;28;20319;-63
2023/07/12 01:48:45;;;;;;;19.17;17.70;;;24.80;99.90;;;;;;6205273;28;20578;-63
2023/07/12 01:51:50;;;;;;;19.90;18.00;;;24.80;99.90;;;;;;6204416;28;20737;-63
2023/07/12 01:54:53;;;;;;;18.67;17.17;;;24.90;99.90;;;;;;6204768;28;20248;-63
2023/07/12 01:57:56;;;;;;;20.73;18.90;;;24.90;99.90;;;;;;6204597;28;20233;-63
2023/07/12 02:01:00;;;;;;;19.97;18.07;;;25.00;99.90;;;;;;6204596;28;20233;-64
2023/07/12 02:04:04;;;;;;;21.00;19.13;;;25.00;99.90;;;;;;6204586;28;20246;-64
2023/07/12 02:07:09;;;;;;;19.50;17.80;;;25.00;99.90;;;;;;6204619;28;20241;-64
2023/07/12 02:10:14;;;;;;;19.10;17.57;;;25.00;99.90;;;;;;6205011;28;20233;-64
2023/07/12 02:13:18;;;;;;;19.93;18.33;;;25.00;99.90;;;;;;6204623;28;20233;-64
2023/07/12 02:16:21;;;;;;;19.63;18.03;;;25.00;99.90;;;;;;6204447;28;20662;-64
2023/07/12 02:19:24;;;;;;;19.50;17.93;;;25.10;99.90;;;;;;6204540;28;20319;-63
2023/07/12 02:22:31;;;;;;;20.70;19.00;;;25.00;99.90;;;;;;6204005;28;20241;-64
2023/07/12 02:25:35;;;;;;;18.20;16.80;;;25.00;99.90;;;;;;6204045;28;20659;-63
2023/07/12 02:28:38;;;;;;;20.70;18.70;;;25.00;99.90;;;;;;6204427;28;20224;-64
2023/07/12 02:31:41;;;;;;;19.37;17.87;;;25.00;99.90;;;;;;6204242;28;20304;-64
2023/07/12 02:34:44;;;;;;;20.30;18.30;;;25.00;99.90;;;;;;6203726;28;20233;-64
2023/07/12 02:37:49;;;;;;;19.37;17.73;;;25.00;99.90;;;;;;6204258;28;20274;-63
2023/07/12 02:40:52;;;;;;;19.00;17.40;;;25.00;99.90;;;;;;6203460;28;20569;-63
2023/07/12 02:43:55;;;;;;;20.60;18.93;;;25.10;99.90;;;;;;6203240;28;20233;-63
2023/07/12 02:46:59;;;;;;;19.33;17.57;;;25.10;99.90;;;;;;6203661;28;20304;-63
2023/07/12 02:50:03;;;;;;;18.37;16.77;;;25.20;99.90;;;;;;6203586;28;20321;-63
2023/07/12 02:53:18;;;;;;;18.83;17.33;;;25.10;99.90;;;;;;6203745;28;20244;-64
2023/07/12 02:56:21;;;;;;;20.17;18.37;;;25.20;99.90;;;;;;6203507;28;20230;-64
2023/07/12 02:59:25;;;;;;;20.83;19.00;;;25.20;99.90;;;;;;6203259;28;20236;-64
2023/07/12 03:02:29;;;;;;;19.70;18.20;;;25.10;99.90;;;;;;6203160;28;20236;-64
2023/07/12 03:05:34;;;;;;;20.17;18.57;;;25.10;99.90;;;;;;6202841;28;20315;-63
2023/07/12 03:08:39;;;;;;;20.57;18.97;;;25.20;99.90;;;;;;6179243;28;20265;-63
2023/07/12 03:11:45;;;;;;;21.90;20.07;;;25.20;99.90;;;;;;6181092;28;20277;-63
2023/07/12 03:14:48;;;;;;;20.80;19.00;;;25.20;99.90;;;;;;6200937;28;20221;-64
2023/07/12 03:17:51;;;;;;;21.57;19.63;;;25.20;99.90;;;;;;6183817;28;20353;-64
2023/07/12 03:20:59;;;;;;;20.30;18.73;;;25.10;99.90;;;;;;6227589;28;20231;-64
2023/07/12 03:24:03;;;;;;;22.87;21.17;;;25.10;99.90;;;;;;6226615;28;20240;-64
2023/07/12 03:27:07;;;;;;;21.13;19.43;;;25.10;99.90;;;;;;6227448;28;20319;-63
2023/07/12 03:30:11;;;;;;;23.27;21.27;;;25.10;99.90;;;;;;6226934;28;20315;-63
2023/07/12 03:33:14;;;;;;;19.67;18.17;;;25.00;99.90;;;;;;6227252;28;20318;-64
2023/07/12 03:36:19;;;;;;;21.87;20.07;;;25.00;99.90;;;;;;6226426;28;20581;-63
2023/07/12 03:39:24;;;;;;;21.60;19.80;;;25.10;99.90;;;;;;6226736;28;20678;-63
2023/07/12 03:42:27;;;;;;;21.97;20.00;;;25.10;99.90;;;;;;6226432;28;20236;-64
2023/07/12 03:45:30;;;;;;;20.67;18.97;;;25.10;99.90;;;;;;6226663;28;20240;-63
2023/07/12 03:48:33;;;;;;;21.07;19.33;;;25.20;99.90;;;;;;6226490;28;20229;-64
2023/07/12 03:51:37;;;;;;;21.67;19.97;;;25.20;99.90;;;;;;6226554;28;20224;-64
2023/07/12 03:54:41;;;;;;;20.37;18.37;;;25.30;99.90;;;;;;6226208;28;20235;-64
2023/07/12 03:57:44;;;;;;;20.87;18.93;;;25.40;99.90;;;;;;6226878;28;20228;-64
2023/07/12 04:00:49;;;;;;;21.07;18.67;;;25.40;99.90;;;;;;6226776;28;20228;-64
2023/07/12 04:03:52;;;;;;;21.60;19.90;;;25.40;99.90;;;;;;6226348;28;20243;-64
2023/07/12 04:06:56;;;;;;;19.37;17.87;;;25.40;99.90;;;;;;6225752;28;20228;-64
2023/07/12 04:10:00;;;;;;;21.83;19.83;;;25.50;99.90;;;;;;6226251;28;20260;-64
2023/07/12 04:13:04;;;;;;;22.60;20.50;;;25.40;99.90;;;;;;6225422;28;20232;-64
2023/07/12 04:16:10;;;;;;;19.80;18.00;;;25.40;99.90;;;;;;6225671;28;20228;-63
2023/07/12 04:19:13;;;;;;;20.03;18.13;;;25.30;99.90;;;;;;6225991;28;20240;-63
2023/07/12 04:22:16;;;;;;;19.00;17.43;;;25.30;99.90;;;;;;6225735;28;20235;-64
2023/07/12 04:25:21;;;;;;;17.73;16.30;;;25.30;99.90;;;;;;6226265;28;20228;-63
2023/07/12 04:28:24;;;;;;;17.53;15.60;;;25.10;99.90;;;;;;6226005;28;20254;-63
2023/07/12 04:31:28;;;;;;;17.03;15.63;;;25.10;99.90;;;;;;6226037;28;20224;-63
2023/07/12 04:34:31;;;;;;;15.77;14.17;;;25.10;99.90;;;;;;6224867;28;20263;-64
2023/07/12 04:37:45;;;;;;;16.27;14.87;;;25.20;99.90;;;;;;6224916;28;20235;-63
2023/07/12 04:40:54;;;;;;;16.53;15.07;;;25.20;99.90;;;;;;6224911;28;20240;-63
2023/07/12 04:43:58;;;;;;;15.63;14.33;;;25.20;99.90;;;;;;6224515;28;20326;-64
2023/07/12 04:47:01;;;;;;;15.60;14.30;;;25.20;99.90;;;;;;6225488;28;20236;-63
2023/07/12 04:50:08;;;;;;;17.13;15.43;;;25.20;99.90;;;;;;6225671;28;20539;-64
2023/07/12 04:53:13;;;;;;;15.67;14.27;;;25.20;99.90;;;;;;6225783;28;20277;-65
2023/07/12 04:56:17;;;;;;;16.33;14.83;;;25.10;99.90;;;;;;6225843;28;20662;-67
2023/07/12 04:59:20;;;;;;;15.93;14.60;;;25.10;99.90;;;;;;6225615;28;20650;-68
2023/07/12 05:02:24;;;;;;;16.50;15.20;;;25.00;99.90;;;;;;6225540;28;20298;-67
2023/07/12 05:05:27;;;;;;;17.80;16.23;;;25.00;99.90;;;;;;6225449;28;20342;-67
2023/07/12 05:08:30;;;;;;;15.63;14.43;;;24.90;99.90;;;;;;6228345;28;20242;-69
2023/07/12 05:11:35;;;;;;;17.10;15.80;;;24.80;99.90;;;;;;6230508;28;20246;-64
2023/07/12 05:14:38;;;;;;;19.20;17.50;;;24.90;99.90;;;;;;6230237;28;20224;-67
2023/07/12 05:17:41;;;;;;;17.43;15.70;;;24.90;99.90;;;;;;6235617;28;20222;-67
2023/07/12 05:20:45;;;;;;;18.87;17.37;;;25.00;99.90;;;;;;6236698;28;20215;-67
2023/07/12 05:23:48;;;;;;;19.40;17.70;;;25.00;99.90;;;;;;6238561;28;20240;-67
2023/07/12 05:26:52;;;;;;;20.40;18.60;;;25.00;99.90;;;;;;6234759;28;20236;-68
2023/07/12 05:29:56;;;;;;;20.17;18.37;;;25.10;99.90;;;;;;6230273;28;20303;-67
2023/07/12 05:32:59;;;;;;;18.30;16.80;;;25.10;99.90;;;;;;6229606;28;20228;-63
2023/07/12 05:36:06;;;;;;;18.93;17.33;;;25.20;99.90;;;;;;6229945;28;20225;-63
2023/07/12 05:39:10;;;;;;;18.37;16.63;;;25.20;99.90;;;;;;6229856;28;20228;-63
2023/07/12 05:42:14;;;;;;;18.97;17.27;;;25.20;99.90;;;;;;6230022;28;20224;-64
2023/07/12 05:45:18;;;;;;;17.47;16.17;;;25.20;99.90;;;;;;6230071;28;20229;-63
2023/07/12 05:48:24;;;;;;;19.07;16.97;;;25.20;99.90;;;;;;6230152;28;20228;-67
2023/07/12 05:51:27;;;;;;;18.00;16.30;;;25.20;99.90;;;;;;6229463;28;20244;-67
2023/07/12 05:54:30;;;;;;;17.10;15.80;;;25.20;99.90;;;;;;6229157;28;20250;-67
2023/07/12 05:57:35;;;;;;;16.63;15.00;;;25.20;99.90;;;;;;6229846;28;20239;-67
2023/07/12 06:00:39;;;;;;;17.53;16.03;;;25.20;99.90;;;;;;6229756;28;20224;-67
2023/07/12 06:03:43;;;;;;;16.77;15.33;;;25.20;99.90;;;;;;6229194;28;20228;-67
2023/07/12 06:06:46;;;;;;;16.57;15.07;;;25.20;99.90;;;;;;6229452;28;20236;-67
2023/07/12 06:09:49;;;;;;;16.47;15.07;;;25.20;99.90;;;;;;6229490;28;20237;-68
2023/07/12 06:12:54;;;;;;;16.17;14.90;;;25.20;99.90;;;;;;6229378;28;20551;-68
2023/07/12 06:15:57;;;;;;;17.03;15.50;;;25.20;99.90;;;;;;6232449;28;20678;-64
2023/07/12 06:19:00;;;;;;;15.07;13.87;;;25.30;99.90;;;;;;6229063;28;20290;-68
2023/07/12 06:22:04;;;;;;;16.07;14.50;;;25.30;99.90;;;;;;6228921;28;20575;-65
2023/07/12 06:25:08;;;;;;;15.90;14.60;;;25.40;99.90;;;;;;6228891;28;20239;-64
2023/07/12 06:28:12;;;;;;;15.50;14.10;;;25.50;99.90;;;;;;6229170;28;20232;-67
2023/07/12 06:31:15;;;;;;;19.40;17.70;;;25.60;99.90;;;;;;6229497;28;20228;-68
2023/07/12 06:34:19;;;;;;;21.80;19.80;;;25.60;99.90;;;;;;6228806;28;20236;-68
2023/07/12 06:37:22;;;;;;;21.00;19.10;;;25.70;99.90;;;;;;6229169;28;20242;-67
2023/07/12 06:40:25;;;;;;;22.87;20.47;;;25.80;99.90;;;;;;6229179;28;20567;-68
2023/07/12 06:43:29;;;;;;;21.40;19.27;;;25.80;99.90;;;;;;6228527;28;20294;-68
2023/07/12 06:46:33;;;;;;;21.17;19.30;;;26.00;99.90;;;;;;6228195;28;20240;-64
2023/07/12 06:49:36;;;;;;;21.93;19.70;;;26.10;99.90;;;;;;6228589;28;20239;-64
2023/07/12 06:52:40;;;;;;;21.77;19.97;;;26.30;99.90;;;;;;6228381;28;20254;-64
2023/07/12 06:55:44;;;;;;;13.83;12.73;;;26.60;99.90;;;;;;6228486;28;20243;-64
2023/07/12 06:58:48;;;;;;;16.17;14.57;;;26.90;99.90;;;;;;6227877;28;20238;-64
2023/07/12 07:01:51;;;;;;;16.97;15.67;;;27.50;99.90;;;;;;6228158;28;20224;-64
2023/07/12 07:04:55;;;;;;;17.23;15.73;;;28.10;99.90;;;;;;6227596;28;20287;-64
2023/07/12 07:07:58;;;;;;;17.13;15.43;;;29.00;99.90;;;;;;6227532;28;20232;-63
2023/07/12 07:11:02;;;;;;;15.80;14.50;;;29.40;99.90;;;;;;6227957;28;20231;-63
2023/07/12 07:14:07;;;;;;;15.02;13.82;;;30.30;99.90;;;;;;6199974;28;20237;-64
2023/07/12 07:17:11;;;;;;;13.05;11.95;;;31.50;98.60;;;;;;6190484;28;20225;-64
2023/07/12 07:20:15;;;;;;;13.43;12.00;;;32.50;95.00;;;;;;6198520;28;20222;-69
2023/07/12 07:23:18;;;;;;;13.25;11.95;;;33.30;92.50;;;;;;6192515;28;20275;-68
2023/07/12 07:26:21;;;;;;;12.70;11.40;;;33.30;91.40;;;;;;6160338;28;20308;-67
2023/07/12 07:29:26;;;;;;;11.10;9.00;;;33.40;91.00;;;;;;6178322;28;20244;-67
2023/07/12 07:32:29;;;;;;;8.48;7.75;;;34.60;83.10;;;;;;6179020;28;20226;-68
2023/07/12 07:35:32;;;;;;;9.30;7.95;;;35.80;75.80;;;;;;6176039;28;20308;-67
2023/07/12 07:38:36;;;;;;;7.97;7.18;;;37.20;68.30;;;;;;6167872;28;20281;-69
2023/07/12 07:41:39;;;;;;;8.52;7.85;;;38.50;60.50;;;;;;6190960;28;20201;-66
2023/07/12 07:44:44;;;;;;;8.05;7.35;;;39.10;55.50;;;;;;6189920;28;20218;-68
2023/07/12 07:47:47;;;;;;;7.18;6.60;;;39.90;54.90;;;;;;6189546;28;20268;-67
2023/07/12 07:50:50;;;;;;;7.65;7.10;;;40.00;51.00;;;;;;6193195;28;20545;-67
2023/07/12 07:53:54;;;;;;;8.23;7.53;;;40.50;49.50;;;;;;6202685;28;20239;-69
2023/07/12 07:56:57;;;;;;;7.95;7.38;;;40.70;47.30;;;;;;6203551;28;20316;-68
2023/07/12 08:00:07;;;;;;;8.32;7.57;;;40.40;47.50;;;;;;6203229;28;20334;-67
2023/07/12 08:03:11;;;;;;;8.05;7.35;;;40.30;47.00;;;;;;6202804;28;20241;-67
2023/07/12 08:06:14;;;;;;;9.18;7.65;;;40.00;46.90;;;;;;6202133;28;20755;-67
2023/07/12 08:09:18;;;;;;;7.75;7.03;;;39.40;47.00;;;;;;6197341;28;20233;-67
2023/07/12 08:12:21;;;;;;;8.82;7.65;;;39.00;48.10;;;;;;6201617;28;20532;-68
2023/07/12 08:15:26;;;;;;;9.30;7.68;;;38.60;48.40;;;;;;6201536;28;20231;-67
2023/07/12 08:18:29;;;;;;;9.23;8.43;;;38.20;49.00;;;;;;6201325;28;20248;-67
2023/07/12 08:21:33;;;;;;;8.35;7.72;;;37.40;50.50;;;;;;6199083;28;20220;-68
2023/07/12 08:24:36;;;;;;;9.63;8.50;;;36.90;51.00;;;;;;6201146;28;20224;-67
2023/07/12 08:27:39;;;;;;;8.23;7.40;;;36.70;53.30;;;;;;6200984;28;20217;-68
2023/07/12 08:30:45;;;;;;;8.52;7.47;;;36.30;52.10;;;;;;6189053;28;20222;-68
2023/07/12 08:33:49;;;;;;;8.38;7.70;;;36.10;52.80;;;;;;6186893;28;20245;-68
2023/07/12 08:36:52;;;;;;;8.48;7.85;;;35.80;53.10;;;;;;6184928;28;20221;-68
2023/07/12 08:39:55;;;;;;;7.53;6.93;;;35.30;52.70;;;;;;6176829;28;20233;-68
2023/07/12 08:43:00;;;;;;;8.40;7.55;;;35.10;52.40;;;;;;6188111;28;20351;-67
2023/07/12 08:46:14;;;;;;;7.80;7.20;;;35.00;53.70;;;;;;6188163;28;20222;-67
2023/07/12 08:49:19;;;;;;;9.32;7.53;;;34.60;52.10;;;;;;6176283;28;20252;-67
2023/07/12 08:52:24;;;;;;;7.28;6.78;;;34.60;53.80;;;;;;6190557;28;20569;-67
2023/07/12 08:55:28;;;;;;;7.63;7.03;;;34.80;54.00;;;;;;6185565;28;20256;-69
2023/07/12 08:58:35;;;;;;;7.93;7.22;;;35.00;52.30;;;;;;6176873;28;20229;-68
2023/07/12 09:01:47;;;;;;;7.45;6.70;;;35.10;51.40;;;;;;6176507;28;20244;-67
2023/07/12 09:04:50;;;;;;;7.35;6.85;;;35.00;51.80;;;;;;6176805;28;20234;-66
2023/07/12 09:07:58;;;;;;;8.07;7.47;;;35.30;53.10;;;;;;6177963;28;20648;-67
2023/07/12 09:11:01;;;;;;;8.57;7.88;;;35.50;53.20;;;;;;6176475;28;20225;-67
2023/07/12 09:14:04;;;;;;;6.18;5.78;;;35.60;52.30;;;;;;6176480;28;20376;-67
